PWSweather.com
Personal Weather Stations
Station Observations
STEFBZH56
PontScorff, PontScorffFR

PontScorffPontScorffFR

Lat: 47.831518, Lon: -3.4222200000000385

Elevation: 141

Station Type: Oregon WMR200

http://www.meteo-pontscorff.fr

High Low Average
Temperature 71.0°F21.7°C 55.4°F13.0°C 62.2°F16.8°C
Dew Point 63.8°F17.7°C 54.9°F12.7°C 59.3°F15.2°C
Winds 9.4 mph 15.1 kmh Calm Calm 4.0 mph SW6.4 kmh SW
Wind Gusts 18.6 mph29.9 kmh -- 7.0 mph11.3 kmh
Humidity 98% 72% 91%
Pressure 29.89 in1012.2 mb 29.56 in1001.0 mb -
Precipitation 0.16 in4.1 mm - -
Hour Temp Dew Point Humidity Winds Wind Gusts Pressure Precip Precip Rate Daily Precip Total
12:00 AM 63.3°F17.4°C 62.7°F17.1°C 98% 0.6 mph W1.0 kmh W 2.5 mph4.0 kmh 29.56 in1001.0 mb 0.00 in0.0 mm 0.00 in0.0 mm 0.00 in0.0 mm
12:05 AM 63.3°F17.4°C 62.7°F17.1°C 98% Calm Calm -- 29.58 in1001.7 mb 0.00 in0.0 mm 0.00 in0.0 mm 0.00 in0.0 mm
12:10 AM 63.4°F17.4°C 62.9°F17.2°C 98% 0.9 mph WSW1.4 kmh WSW 2.0 mph3.2 kmh 29.59 in1002.0 mb 0.00 in0.0 mm 0.00 in0.0 mm 0.00 in0.0 mm
12:15 AM 63.5°F17.5°C 63.0°F17.2°C 98% 1.5 mph WSW2.4 kmh WSW 2.9 mph4.7 kmh 29.59 in1002.0 mb 0.00 in0.0 mm 0.00 in0.0 mm 0.00 in0.0 mm
12:20 AM 63.7°F17.6°C 63.1°F17.3°C 98% 1.6 mph S2.6 kmh S 3.1 mph5.0 kmh 29.59 in1002.0 mb 0.00 in0.0 mm 0.00 in0.0 mm 0.00 in0.0 mm
12:25 AM 63.7°F17.6°C 63.1°F17.3°C 98% 1.2 mph SSW1.9 kmh SSW 3.4 mph5.5 kmh 29.59 in1002.0 mb 0.00 in0.0 mm 0.00 in0.0 mm 0.00 in0.0 mm
12:30 AM 63.8°F17.7°C 63.3°F17.4°C 98% 2.2 mph S3.5 kmh S 3.6 mph5.8 kmh 29.59 in1002.0 mb 0.00 in0.0 mm 0.00 in0.0 mm 0.00 in0.0 mm
12:35 AM 64.0°F17.8°C 63.4°F17.4°C 98% 1.1 mph SW1.8 kmh SW 3.6 mph5.8 kmh 29.61 in1002.7 mb 0.00 in0.0 mm 0.00 in0.0 mm 0.00 in0.0 mm
12:40 AM 64.0°F17.8°C 63.5°F17.5°C 98% 1.3 mph SW2.1 kmh SW 4.0 mph6.4 kmh 29.62 in1003.0 mb 0.00 in0.0 mm 0.00 in0.0 mm 0.00 in0.0 mm
12:45 AM 64.2°F17.9°C 63.6°F17.6°C 98% 2.5 mph SSW4.0 kmh SSW 7.6 mph12.2 kmh 29.62 in1003.0 mb 0.00 in0.0 mm 0.00 in0.0 mm 0.00 in0.0 mm
12:50 AM 64.4°F18.0°C 63.8°F17.7°C 98% 4.4 mph SW7.1 kmh SW 8.7 mph14.0 kmh 29.62 in1003.0 mb 0.00 in0.0 mm 0.00 in0.0 mm 0.00 in0.0 mm
12:55 AM 64.4°F18.0°C 63.8°F17.7°C 98% 5.8 mph SW9.3 kmh SW 14.8 mph23.8 kmh 29.62 in1003.0 mb 0.00 in0.0 mm 0.00 in0.0 mm 0.00 in0.0 mm
01:00 AM 63.2°F17.3°C 62.6°F17.0°C 98% 7.9 mph SW12.7 kmh SW 13.2 mph21.2 kmh 29.62 in1003.0 mb 0.00 in0.0 mm 0.00 in0.0 mm 0.00 in0.0 mm
01:05 AM 61.9°F16.6°C 61.3°F16.3°C 98% 7.8 mph WSW12.6 kmh WSW 17.7 mph28.5 kmh 29.62 in1003.0 mb 0.00 in0.0 mm 0.00 in0.0 mm 0.00 in0.0 mm
01:10 AM 61.1°F16.2°C 60.5°F15.8°C 98% 6.8 mph WSW10.9 kmh WSW 11.2 mph18.0 kmh 29.62 in1003.0 mb 0.00 in0.0 mm 0.00 in0.0 mm 0.00 in0.0 mm
01:15 AM 60.3°F15.7°C 59.7°F15.4°C 98% 7.8 mph WSW12.6 kmh WSW 16.8 mph27.0 kmh -- 0.00 in0.0 mm 0.00 in0.0 mm 0.00 in0.0 mm
01:20 AM 59.7°F15.4°C 59.2°F15.1°C 98% 6.2 mph WSW10.0 kmh WSW 13.2 mph21.2 kmh 29.64 in1003.7 mb 0.00 in0.0 mm 0.00 in0.0 mm 0.00 in0.0 mm
01:25 AM 59.2°F15.1°C 58.7°F14.8°C 98% 6.3 mph WSW10.1 kmh WSW 12.8 mph20.6 kmh 29.65 in1004.1 mb 0.00 in0.0 mm 0.00 in0.0 mm 0.00 in0.0 mm
01:30 AM 58.9°F14.9°C 58.4°F14.7°C 98% 5.3 mph W8.5 kmh W 10.1 mph16.3 kmh 29.65 in1004.1 mb 0.00 in0.0 mm 0.00 in0.0 mm 0.00 in0.0 mm
01:35 AM 58.6°F14.8°C 58.1°F14.5°C 98% 5.0 mph WSW8.0 kmh WSW 7.6 mph12.2 kmh 29.65 in1004.1 mb 0.00 in0.0 mm 0.00 in0.0 mm 0.00 in0.0 mm
01:40 AM 58.5°F14.7°C 57.9°F14.4°C 98% 3.7 mph WNW6.0 kmh WNW 6.3 mph10.1 kmh 29.65 in1004.1 mb 0.00 in0.0 mm 0.00 in0.0 mm 0.00 in0.0 mm
01:45 AM 58.4°F14.7°C 57.8°F14.3°C 98% 3.8 mph NW6.1 kmh NW 6.5 mph10.5 kmh 29.65 in1004.1 mb 0.00 in0.0 mm 0.00 in0.0 mm 0.00 in0.0 mm
01:50 AM 58.3°F14.6°C 57.7°F14.3°C 98% 3.4 mph WNW5.5 kmh WNW 5.8 mph9.3 kmh 29.63 in1003.4 mb 0.00 in0.0 mm 0.00 in0.0 mm 0.00 in0.0 mm
01:55 AM 58.3°F14.6°C 57.7°F14.3°C 98% 3.5 mph WNW5.6 kmh WNW 5.1 mph8.2 kmh 29.62 in1003.0 mb 0.00 in0.0 mm 0.00 in0.0 mm 0.00 in0.0 mm
02:00 AM 58.1°F14.5°C 57.6°F14.2°C 98% 3.4 mph WNW5.5 kmh WNW 5.1 mph8.2 kmh 29.62 in1003.0 mb 0.04 in1.0 mm 0.04 in1.0 mm 0.04 in1.0 mm
02:05 AM 58.1°F14.5°C 57.5°F14.2°C 98% 3.2 mph WNW5.1 kmh WNW 6.5 mph10.5 kmh 29.62 in1003.0 mb 0.04 in1.0 mm 0.00 in0.0 mm 0.04 in1.0 mm
02:10 AM 58.1°F14.5°C 57.5°F14.2°C 98% 3.8 mph WNW6.1 kmh WNW 5.4 mph8.7 kmh 29.62 in1003.0 mb 0.04 in1.0 mm 0.00 in0.0 mm 0.04 in1.0 mm
02:15 AM 58.1°F14.5°C 57.5°F14.2°C 98% 3.5 mph WNW5.6 kmh WNW 4.9 mph7.9 kmh 29.62 in1003.0 mb 0.04 in1.0 mm 0.00 in0.0 mm 0.04 in1.0 mm
02:20 AM 58.1°F14.5°C 57.5°F14.2°C 98% 3.4 mph WNW5.5 kmh WNW 4.9 mph7.9 kmh 29.60 in1002.4 mb 0.00 in0.0 mm 0.00 in0.0 mm 0.04 in1.0 mm
02:25 AM 58.1°F14.5°C 57.5°F14.2°C 98% 2.4 mph WNW3.9 kmh WNW 3.8 mph6.1 kmh 29.59 in1002.0 mb 0.00 in0.0 mm 0.00 in0.0 mm 0.04 in1.0 mm
02:30 AM 58.1°F14.5°C 57.5°F14.2°C 98% 2.6 mph WNW4.2 kmh WNW 3.6 mph5.8 kmh 29.59 in1002.0 mb 0.00 in0.0 mm 0.00 in0.0 mm 0.04 in1.0 mm
02:35 AM 58.0°F14.4°C 57.4°F14.1°C 98% 2.2 mph SW3.5 kmh SW 3.4 mph5.5 kmh 29.61 in1002.7 mb 0.00 in0.0 mm 0.00 in0.0 mm 0.04 in1.0 mm
02:40 AM 57.9°F14.4°C 57.4°F14.1°C 98% 0.8 mph SSE1.3 kmh SSE 3.4 mph5.5 kmh 29.62 in1003.0 mb 0.00 in0.0 mm 0.00 in0.0 mm 0.04 in1.0 mm
02:45 AM 57.9°F14.4°C 57.4°F14.1°C 98% 0.6 mph SW1.0 kmh SW 2.9 mph4.7 kmh 29.62 in1003.0 mb 0.05 in1.3 mm 0.60 in15.2 mm 0.09 in2.3 mm
02:50 AM 57.8°F14.3°C 57.2°F14.0°C 98% 0.1 mph NW0.2 kmh NW 0.4 mph0.6 kmh 29.60 in1002.4 mb 0.05 in1.3 mm 0.00 in0.0 mm 0.09 in2.3 mm
02:55 AM 57.8°F14.3°C 57.2°F14.0°C 98% 0.2 mph NNW0.3 kmh NNW 1.8 mph2.9 kmh 29.59 in1002.0 mb 0.05 in1.3 mm 0.00 in0.0 mm 0.09 in2.3 mm
03:00 AM 57.7°F14.3°C 57.2°F14.0°C 98% Calm Calm -- 29.59 in1002.0 mb 0.05 in1.3 mm 0.00 in0.0 mm 0.09 in2.3 mm
03:05 AM 57.7°F14.3°C 57.2°F14.0°C 98% 0.1 mph NNW0.2 kmh NNW 1.6 mph2.6 kmh 29.61 in1002.7 mb 0.05 in1.3 mm 0.00 in0.0 mm 0.09 in2.3 mm
03:10 AM 57.7°F14.3°C 57.2°F14.0°C 98% 0.1 mph NNW0.2 kmh NNW 0.9 mph1.4 kmh 29.62 in1003.0 mb 0.05 in1.3 mm 0.00 in0.0 mm 0.09 in2.3 mm
03:15 AM 57.7°F14.3°C 57.2°F14.0°C 98% 0.1 mph ESE0.2 kmh ESE 1.8 mph2.9 kmh 29.62 in1003.0 mb 0.05 in1.3 mm 0.00 in0.0 mm 0.09 in2.3 mm
03:20 AM 57.7°F14.3°C 57.2°F14.0°C 98% 1.0 mph SE1.6 kmh SE 3.6 mph5.8 kmh 29.60 in1002.4 mb 0.00 in0.0 mm 0.00 in0.0 mm 0.09 in2.3 mm
03:25 AM 57.7°F14.3°C 57.2°F14.0°C 98% 0.8 mph SE1.3 kmh SE 3.4 mph5.5 kmh 29.59 in1002.0 mb 0.00 in0.0 mm 0.00 in0.0 mm 0.09 in2.3 mm
03:30 AM 57.7°F14.3°C 57.2°F14.0°C 98% 1.3 mph SE2.1 kmh SE 3.4 mph5.5 kmh 29.59 in1002.0 mb 0.00 in0.0 mm 0.00 in0.0 mm 0.09 in2.3 mm
03:35 AM 57.9°F14.4°C 57.3°F14.1°C 98% 0.2 mph SSW0.3 kmh SSW 2.0 mph3.2 kmh 29.61 in1002.7 mb 0.00 in0.0 mm 0.00 in0.0 mm 0.09 in2.3 mm
03:40 AM 57.9°F14.4°C 57.4°F14.1°C 98% 0.1 mph SSW0.2 kmh SSW 1.6 mph2.6 kmh 29.62 in1003.0 mb 0.00 in0.0 mm 0.00 in0.0 mm 0.09 in2.3 mm
03:45 AM 57.9°F14.4°C 57.4°F14.1°C 98% 0.1 mph S0.2 kmh S 1.6 mph2.6 kmh 29.62 in1003.0 mb 0.00 in0.0 mm 0.00 in0.0 mm 0.09 in2.3 mm
03:50 AM 57.8°F14.3°C 57.2°F14.0°C 98% 0.6 mph E1.0 kmh E 2.7 mph4.3 kmh 29.62 in1003.0 mb 0.04 in1.0 mm 0.48 in12.2 mm 0.13 in3.3 mm
03:55 AM 57.7°F14.3°C 57.2°F14.0°C 98% 1.3 mph ENE2.1 kmh ENE 2.5 mph4.0 kmh 29.62 in1003.0 mb 0.04 in1.0 mm 0.00 in0.0 mm 0.13 in3.3 mm
04:00 AM 57.6°F14.2°C 57.1°F13.9°C 98% 1.1 mph S1.8 kmh S 2.7 mph4.3 kmh 29.62 in1003.0 mb 0.04 in1.0 mm 0.00 in0.0 mm 0.13 in3.3 mm
04:05 AM 57.7°F14.3°C 57.2°F14.0°C 98% 0.3 mph ENE0.5 kmh ENE 2.0 mph3.2 kmh 29.62 in1003.0 mb 0.04 in1.0 mm 0.00 in0.0 mm 0.13 in3.3 mm
04:10 AM 57.7°F14.3°C 57.2°F14.0°C 98% 0.8 mph E1.3 kmh E 3.6 mph5.8 kmh 29.62 in1003.0 mb 0.04 in1.0 mm 0.00 in0.0 mm 0.13 in3.3 mm
04:15 AM 57.7°F14.3°C 57.2°F14.0°C 98% 0.9 mph E1.4 kmh E 2.9 mph4.7 kmh 29.62 in1003.0 mb 0.04 in1.0 mm 0.00 in0.0 mm 0.13 in3.3 mm
04:20 AM 57.7°F14.3°C 57.2°F14.0°C 98% 1.1 mph WSW1.8 kmh WSW 2.5 mph4.0 kmh 29.62 in1003.0 mb 0.00 in0.0 mm 0.00 in0.0 mm 0.13 in3.3 mm
04:25 AM 57.7°F14.3°C 57.2°F14.0°C 98% 0.8 mph ESE1.3 kmh ESE 3.4 mph5.5 kmh 29.62 in1003.0 mb 0.00 in0.0 mm 0.00 in0.0 mm 0.13 in3.3 mm
04:30 AM 57.7°F14.3°C 57.2°F14.0°C 98% 1.5 mph ESE2.4 kmh ESE 3.4 mph5.5 kmh 29.62 in1003.0 mb 0.00 in0.0 mm 0.00 in0.0 mm 0.13 in3.3 mm
04:35 AM 57.7°F14.3°C 57.2°F14.0°C 98% 0.6 mph WSW1.0 kmh WSW 2.0 mph3.2 kmh 29.62 in1003.0 mb 0.00 in0.0 mm 0.00 in0.0 mm 0.13 in3.3 mm
04:40 AM 57.9°F14.4°C 57.3°F14.1°C 98% 0.4 mph N0.6 kmh N 2.5 mph4.0 kmh 29.62 in1003.0 mb 0.00 in0.0 mm 0.00 in0.0 mm 0.13 in3.3 mm
04:45 AM 57.9°F14.4°C 57.4°F14.1°C 98% 1.4 mph SE2.3 kmh SE 2.9 mph4.7 kmh 29.62 in1003.0 mb 0.00 in0.0 mm 0.00 in0.0 mm 0.13 in3.3 mm
04:50 AM 57.9°F14.4°C 57.4°F14.1°C 98% 0.7 mph NW1.1 kmh NW 2.9 mph4.7 kmh 29.62 in1003.0 mb 0.00 in0.0 mm 0.00 in0.0 mm 0.13 in3.3 mm
04:55 AM 57.9°F14.4°C 57.4°F14.1°C 98% 0.7 mph NNE1.1 kmh NNE 3.1 mph5.0 kmh 29.62 in1003.0 mb 0.00 in0.0 mm 0.00 in0.0 mm 0.13 in3.3 mm
05:00 AM 57.9°F14.4°C 57.4°F14.1°C 98% 2.1 mph NE3.4 kmh NE 3.8 mph6.1 kmh 29.62 in1003.0 mb 0.00 in0.0 mm 0.00 in0.0 mm 0.13 in3.3 mm
05:05 AM 57.9°F14.4°C 57.4°F14.1°C 98% 2.3 mph NE3.7 kmh NE 3.8 mph6.1 kmh 29.60 in1002.4 mb 0.00 in0.0 mm 0.00 in0.0 mm 0.13 in3.3 mm
05:10 AM 57.9°F14.4°C 57.4°F14.1°C 98% 2.5 mph E4.0 kmh E 4.3 mph6.9 kmh 29.59 in1002.0 mb 0.03 in0.8 mm 0.36 in9.1 mm 0.16 in4.1 mm
05:15 AM 57.9°F14.4°C 57.4°F14.1°C 98% 2.0 mph SE3.2 kmh SE 3.4 mph5.5 kmh 29.59 in1002.0 mb 0.03 in0.8 mm 0.00 in0.0 mm 0.16 in4.1 mm
05:20 AM 58.0°F14.4°C 57.4°F14.1°C 98% 2.0 mph S3.2 kmh S 3.4 mph5.5 kmh 29.59 in1002.0 mb 0.00 in0.0 mm 0.00 in0.0 mm 0.16 in4.1 mm
05:25 AM 58.1°F14.5°C 57.5°F14.2°C 98% 1.4 mph S2.3 kmh S 3.8 mph6.1 kmh 29.59 in1002.0 mb 0.00 in0.0 mm 0.00 in0.0 mm 0.16 in4.1 mm
05:30 AM 58.1°F14.5°C 57.5°F14.2°C 98% 1.4 mph SSE2.3 kmh SSE 3.8 mph6.1 kmh 29.59 in1002.0 mb 0.00 in0.0 mm 0.00 in0.0 mm 0.16 in4.1 mm
05:35 AM 58.1°F14.5°C 57.5°F14.2°C 98% 1.4 mph E2.3 kmh E 3.8 mph6.1 kmh 29.59 in1002.0 mb 0.00 in0.0 mm 0.00 in0.0 mm 0.16 in4.1 mm
05:40 AM 58.1°F14.5°C 57.5°F14.2°C 98% 0.7 mph S1.1 kmh S 2.9 mph4.7 kmh 29.59 in1002.0 mb 0.00 in0.0 mm 0.00 in0.0 mm 0.16 in4.1 mm
05:45 AM 58.2°F14.6°C 57.6°F14.2°C 98% 1.4 mph SE2.3 kmh SE 3.4 mph5.5 kmh 29.59 in1002.0 mb 0.00 in0.0 mm 0.00 in0.0 mm 0.16 in4.1 mm
05:50 AM 58.3°F14.6°C 57.7°F14.3°C 98% 0.2 mph ENE0.3 kmh ENE 1.6 mph2.6 kmh 29.57 in1001.4 mb 0.00 in0.0 mm 0.00 in0.0 mm 0.16 in4.1 mm
05:55 AM 58.3°F14.6°C 57.7°F14.3°C 98% 0.6 mph SW1.0 kmh SW 3.4 mph5.5 kmh 29.56 in1001.0 mb 0.00 in0.0 mm 0.00 in0.0 mm 0.16 in4.1 mm
06:00 AM 58.3°F14.6°C 57.7°F14.3°C 98% 0.6 mph SSW1.0 kmh SSW 2.7 mph4.3 kmh 29.56 in1001.0 mb 0.00 in0.0 mm 0.00 in0.0 mm 0.16 in4.1 mm
06:05 AM 58.3°F14.6°C 57.7°F14.3°C 98% 1.0 mph SSE1.6 kmh SSE 4.9 mph7.9 kmh 29.58 in1001.7 mb 0.00 in0.0 mm 0.00 in0.0 mm 0.16 in4.1 mm
06:10 AM 58.3°F14.6°C 57.7°F14.3°C 98% 0.1 mph SSW0.2 kmh SSW 0.4 mph0.6 kmh 29.59 in1002.0 mb 0.00 in0.0 mm 0.00 in0.0 mm 0.16 in4.1 mm
06:15 AM 58.3°F14.6°C 57.7°F14.3°C 98% Calm Calm 1.1 mph1.8 kmh 29.59 in1002.0 mb 0.00 in0.0 mm 0.00 in0.0 mm 0.16 in4.1 mm
06:20 AM 58.3°F14.6°C 57.7°F14.3°C 98% 0.1 mph E0.2 kmh E 2.7 mph4.3 kmh 29.59 in1002.0 mb 0.00 in0.0 mm 0.00 in0.0 mm 0.16 in4.1 mm
06:25 AM 58.3°F14.6°C 57.7°F14.3°C 98% 0.7 mph ESE1.1 kmh ESE 2.0 mph3.2 kmh 29.59 in1002.0 mb 0.00 in0.0 mm 0.00 in0.0 mm 0.16 in4.1 mm
06:29 AM 58.5°F14.7°C 57.9°F14.4°C 98% 1.1 mph NW1.8 kmh NW 1.6 mph2.6 kmh 29.65 in1004.1 mb 0.00 in0.0 mm 0.00 in0.0 mm 0.16 in4.1 mm
06:30 AM 58.5°F14.7°C 57.9°F14.4°C 98% 1.7 mph ESE2.7 kmh ESE 3.1 mph5.0 kmh 29.59 in1002.0 mb 0.00 in0.0 mm 0.00 in0.0 mm 0.16 in4.1 mm
06:35 AM 58.5°F14.7°C 57.9°F14.4°C 98% 0.1 mph SE0.2 kmh SE 2.0 mph3.2 kmh 29.59 in1002.0 mb 0.00 in0.0 mm 0.00 in0.0 mm 0.16 in4.1 mm
06:40 AM 58.5°F14.7°C 57.9°F14.4°C 98% 1.0 mph SE1.6 kmh SE 3.1 mph5.0 kmh 29.59 in1002.0 mb 0.00 in0.0 mm 0.00 in0.0 mm 0.16 in4.1 mm
06:45 AM 58.5°F14.7°C 58.0°F14.4°C 98% 0.9 mph S1.4 kmh S 2.5 mph4.0 kmh 29.59 in1002.0 mb 0.00 in0.0 mm 0.00 in0.0 mm 0.16 in4.1 mm
06:50 AM 58.6°F14.8°C 58.1°F14.5°C 98% 0.8 mph E1.3 kmh E 2.0 mph3.2 kmh 29.59 in1002.0 mb 0.00 in0.0 mm 0.00 in0.0 mm 0.16 in4.1 mm
06:55 AM 58.9°F14.9°C 58.3°F14.6°C 98% 0.8 mph N1.3 kmh N 2.5 mph4.0 kmh 29.59 in1002.0 mb 0.00 in0.0 mm 0.00 in0.0 mm 0.16 in4.1 mm
07:00 AM 59.0°F15.0°C 58.4°F14.7°C 98% 1.3 mph NW2.1 kmh NW 3.4 mph5.5 kmh 29.59 in1002.0 mb 0.00 in0.0 mm 0.00 in0.0 mm 0.16 in4.1 mm
07:05 AM 59.2°F15.1°C 58.7°F14.8°C 98% 1.9 mph SSE3.1 kmh SSE 4.3 mph6.9 kmh 29.59 in1002.0 mb 0.00 in0.0 mm 0.00 in0.0 mm 0.16 in4.1 mm
07:10 AM 59.4°F15.2°C 58.8°F14.9°C 98% 0.6 mph NE1.0 kmh NE 2.0 mph3.2 kmh 29.59 in1002.0 mb 0.00 in0.0 mm 0.00 in0.0 mm 0.16 in4.1 mm
07:15 AM 59.5°F15.3°C 59.0°F15.0°C 98% 0.9 mph NW1.4 kmh NW 3.1 mph5.0 kmh 29.59 in1002.0 mb 0.00 in0.0 mm 0.00 in0.0 mm 0.16 in4.1 mm
07:20 AM 59.7°F15.4°C 59.2°F15.1°C 98% 1.1 mph SW1.8 kmh SW 3.1 mph5.0 kmh 29.59 in1002.0 mb 0.00 in0.0 mm 0.00 in0.0 mm 0.16 in4.1 mm
07:25 AM 59.9°F15.5°C 59.4°F15.2°C 98% 1.1 mph WSW1.8 kmh WSW 3.1 mph5.0 kmh 29.59 in1002.0 mb 0.00 in0.0 mm 0.00 in0.0 mm 0.16 in4.1 mm
07:30 AM 60.2°F15.7°C 59.6°F15.3°C 98% 2.0 mph S3.2 kmh S 5.1 mph8.2 kmh 29.59 in1002.0 mb 0.00 in0.0 mm 0.00 in0.0 mm 0.16 in4.1 mm
07:35 AM 60.3°F15.7°C 59.7°F15.4°C 98% 2.4 mph S3.9 kmh S 4.9 mph7.9 kmh 29.59 in1002.0 mb 0.00 in0.0 mm 0.00 in0.0 mm 0.16 in4.1 mm
07:40 AM 60.2°F15.7°C 59.6°F15.3°C 98% 3.0 mph SSW4.8 kmh SSW 7.4 mph11.9 kmh 29.59 in1002.0 mb 0.00 in0.0 mm 0.00 in0.0 mm 0.16 in4.1 mm
07:45 AM 59.9°F15.5°C 59.4°F15.2°C 98% 2.7 mph SW4.3 kmh SW 6.9 mph11.1 kmh 29.59 in1002.0 mb 0.00 in0.0 mm 0.00 in0.0 mm 0.16 in4.1 mm
07:50 AM 59.6°F15.3°C 59.0°F15.0°C 98% 3.3 mph SSW5.3 kmh SSW 6.9 mph11.1 kmh 29.59 in1002.0 mb 0.00 in0.0 mm 0.00 in0.0 mm 0.16 in4.1 mm
07:55 AM 59.3°F15.2°C 58.8°F14.9°C 98% 2.7 mph SSE4.3 kmh SSE 4.9 mph7.9 kmh 29.59 in1002.0 mb 0.00 in0.0 mm 0.00 in0.0 mm 0.16 in4.1 mm
08:00 AM 59.2°F15.1°C 58.6°F14.8°C 98% 2.6 mph SW4.2 kmh SW 5.1 mph8.2 kmh 29.59 in1002.0 mb 0.00 in0.0 mm 0.00 in0.0 mm 0.16 in4.1 mm
08:05 AM 59.2°F15.1°C 58.7°F14.8°C 98% 2.8 mph S4.5 kmh S 6.9 mph11.1 kmh 29.61 in1002.7 mb 0.00 in0.0 mm 0.00 in0.0 mm 0.16 in4.1 mm
08:10 AM 59.8°F15.4°C 59.2°F15.1°C 98% 2.9 mph SW4.7 kmh SW 8.1 mph13.0 kmh 29.62 in1003.0 mb 0.00 in0.0 mm 0.00 in0.0 mm 0.16 in4.1 mm
08:15 AM 60.3°F15.7°C 59.7°F15.4°C 98% 2.6 mph SSW4.2 kmh SSW 4.5 mph7.2 kmh 29.62 in1003.0 mb 0.00 in0.0 mm 0.00 in0.0 mm 0.16 in4.1 mm
08:20 AM 60.6°F15.9°C 60.1°F15.6°C 98% 3.2 mph S5.1 kmh S 5.6 mph9.0 kmh 29.62 in1003.0 mb 0.00 in0.0 mm 0.00 in0.0 mm 0.16 in4.1 mm
08:25 AM 60.9°F16.1°C 60.3°F15.7°C 98% 3.7 mph SSW6.0 kmh SSW 7.8 mph12.6 kmh 29.62 in1003.0 mb 0.00 in0.0 mm 0.00 in0.0 mm 0.16 in4.1 mm
08:30 AM 61.0°F16.1°C 60.4°F15.8°C 98% 4.2 mph SW6.8 kmh SW 9.4 mph15.1 kmh 29.62 in1003.0 mb 0.00 in0.0 mm 0.00 in0.0 mm 0.16 in4.1 mm
08:35 AM 61.0°F16.1°C 60.4°F15.8°C 98% 3.9 mph SW6.3 kmh SW 6.9 mph11.1 kmh 29.62 in1003.0 mb 0.00 in0.0 mm 0.00 in0.0 mm 0.16 in4.1 mm
08:40 AM 61.6°F16.4°C 61.0°F16.1°C 98% 3.7 mph SW6.0 kmh SW 6.9 mph11.1 kmh 29.62 in1003.0 mb 0.00 in0.0 mm 0.00 in0.0 mm 0.16 in4.1 mm
08:45 AM 62.2°F16.8°C 61.7°F16.5°C 98% 3.1 mph SW5.0 kmh SW 5.4 mph8.7 kmh 29.62 in1003.0 mb 0.00 in0.0 mm 0.00 in0.0 mm 0.16 in4.1 mm
08:50 AM 62.3°F16.8°C 61.7°F16.5°C 98% 4.2 mph SW6.8 kmh SW 7.6 mph12.2 kmh 29.62 in1003.0 mb 0.00 in0.0 mm 0.00 in0.0 mm 0.16 in4.1 mm
08:55 AM 62.3°F16.8°C 61.7°F16.5°C 98% 4.7 mph SW7.6 kmh SW 8.9 mph14.3 kmh 29.62 in1003.0 mb 0.00 in0.0 mm 0.00 in0.0 mm 0.16 in4.1 mm
09:00 AM 62.9°F17.2°C 61.6°F16.4°C 96% 5.5 mph SW8.9 kmh SW 10.1 mph16.3 kmh 29.62 in1003.0 mb 0.00 in0.0 mm 0.00 in0.0 mm 0.16 in4.1 mm
09:05 AM 63.0°F17.2°C 61.5°F16.4°C 95% 4.3 mph SW6.9 kmh SW 8.7 mph14.0 kmh 29.62 in1003.0 mb 0.00 in0.0 mm 0.00 in0.0 mm 0.16 in4.1 mm
09:10 AM 63.3°F17.4°C 61.8°F16.6°C 95% 4.7 mph SW7.6 kmh SW 9.4 mph15.1 kmh 29.62 in1003.0 mb 0.00 in0.0 mm 0.00 in0.0 mm 0.16 in4.1 mm
09:15 AM 64.5°F18.1°C 62.6°F17.0°C 94% 5.0 mph SW8.0 kmh SW 12.5 mph20.1 kmh 29.62 in1003.0 mb 0.00 in0.0 mm 0.00 in0.0 mm 0.16 in4.1 mm
09:20 AM 65.3°F18.5°C 61.9°F16.6°C 89% 6.2 mph SW10.0 kmh SW 13.4 mph21.6 kmh 29.64 in1003.7 mb 0.00 in0.0 mm 0.00 in0.0 mm 0.16 in4.1 mm
09:25 AM 65.4°F18.6°C 61.2°F16.2°C 86% 7.3 mph W11.7 kmh W 12.5 mph20.1 kmh 29.65 in1004.1 mb 0.00 in0.0 mm 0.00 in0.0 mm 0.16 in4.1 mm
09:30 AM 65.8°F18.8°C 61.3°F16.3°C 86% 4.7 mph WSW7.6 kmh WSW 8.1 mph13.0 kmh 29.65 in1004.1 mb 0.00 in0.0 mm 0.00 in0.0 mm 0.16 in4.1 mm
09:35 AM 66.2°F19.0°C 60.8°F16.0°C 83% 5.9 mph SW9.5 kmh SW 11.9 mph19.2 kmh 29.65 in1004.1 mb 0.00 in0.0 mm 0.00 in0.0 mm 0.16 in4.1 mm
09:40 AM 66.5°F19.2°C 60.8°F16.0°C 82% 5.5 mph SW8.9 kmh SW 8.9 mph14.3 kmh 29.65 in1004.1 mb 0.00 in0.0 mm 0.00 in0.0 mm 0.16 in4.1 mm
09:45 AM 66.8°F19.3°C 60.7°F15.9°C 81% 5.7 mph WSW9.2 kmh WSW 12.3 mph19.8 kmh 29.65 in1004.1 mb 0.00 in0.0 mm 0.00 in0.0 mm 0.16 in4.1 mm
09:50 AM 67.0°F19.4°C 60.6°F15.9°C 80% 5.3 mph SW8.5 kmh SW 11.0 mph17.7 kmh 29.65 in1004.1 mb 0.00 in0.0 mm 0.00 in0.0 mm 0.16 in4.1 mm
09:55 AM 67.1°F19.5°C 60.5°F15.8°C 79% 6.0 mph WSW9.7 kmh WSW 10.5 mph16.9 kmh 29.65 in1004.1 mb 0.00 in0.0 mm 0.00 in0.0 mm 0.16 in4.1 mm
10:00 AM 67.2°F19.6°C 60.4°F15.8°C 79% 7.2 mph SW11.6 kmh SW 11.4 mph18.3 kmh 29.65 in1004.1 mb 0.00 in0.0 mm 0.00 in0.0 mm 0.16 in4.1 mm
10:05 AM 67.3°F19.6°C 60.7°F15.9°C 79% 5.2 mph SW8.4 kmh SW 8.9 mph14.3 kmh 29.65 in1004.1 mb 0.00 in0.0 mm 0.00 in0.0 mm 0.16 in4.1 mm
10:10 AM 67.9°F19.9°C 61.3°F16.3°C 79% 4.4 mph SW7.1 kmh SW 7.8 mph12.6 kmh 29.65 in1004.1 mb 0.00 in0.0 mm 0.00 in0.0 mm 0.16 in4.1 mm
10:15 AM 68.5°F20.3°C 61.6°F16.4°C 79% 4.4 mph SW7.1 kmh SW 8.7 mph14.0 kmh 29.65 in1004.1 mb 0.00 in0.0 mm 0.00 in0.0 mm 0.16 in4.1 mm
10:20 AM 69.1°F20.6°C 61.8°F16.6°C 78% 4.6 mph SW7.4 kmh SW 13.0 mph20.9 kmh 29.63 in1003.4 mb 0.00 in0.0 mm 0.00 in0.0 mm 0.16 in4.1 mm
10:25 AM 68.9°F20.5°C 60.6°F15.9°C 75% 7.4 mph SW11.9 kmh SW 13.6 mph21.9 kmh 29.62 in1003.0 mb 0.00 in0.0 mm 0.00 in0.0 mm 0.16 in4.1 mm
10:30 AM 68.7°F20.4°C 60.5°F15.8°C 75% 5.7 mph SW9.2 kmh SW 11.0 mph17.7 kmh 29.62 in1003.0 mb 0.00 in0.0 mm 0.00 in0.0 mm 0.16 in4.1 mm
10:35 AM 69.1°F20.6°C 60.6°F15.9°C 74% 5.1 mph WSW8.2 kmh WSW 7.8 mph12.6 kmh 29.64 in1003.7 mb 0.00 in0.0 mm 0.00 in0.0 mm 0.16 in4.1 mm
10:40 AM 69.6°F20.9°C 61.1°F16.2°C 75% 5.1 mph SW8.2 kmh SW 11.4 mph18.3 kmh 29.65 in1004.1 mb 0.00 in0.0 mm 0.00 in0.0 mm 0.16 in4.1 mm
10:45 AM 69.5°F20.8°C 60.6°F15.9°C 73% 6.3 mph SW10.1 kmh SW 9.8 mph15.8 kmh 29.65 in1004.1 mb 0.00 in0.0 mm 0.00 in0.0 mm 0.16 in4.1 mm
10:50 AM 69.6°F20.9°C 60.6°F15.9°C 73% 5.8 mph SW9.3 kmh SW 11.2 mph18.0 kmh 29.65 in1004.1 mb 0.00 in0.0 mm 0.00 in0.0 mm 0.16 in4.1 mm
10:55 AM 69.7°F20.9°C 60.6°F15.9°C 73% 6.1 mph SW9.8 kmh SW 10.7 mph17.2 kmh 29.65 in1004.1 mb 0.00 in0.0 mm 0.00 in0.0 mm 0.16 in4.1 mm
11:00 AM 69.9°F21.1°C 60.8°F16.0°C 73% 5.0 mph SW8.0 kmh SW 11.6 mph18.7 kmh 29.65 in1004.1 mb 0.00 in0.0 mm 0.00 in0.0 mm 0.16 in4.1 mm
11:05 AM 70.0°F21.1°C 60.7°F15.9°C 72% 5.9 mph SW9.5 kmh SW 8.9 mph14.3 kmh 29.65 in1004.1 mb 0.00 in0.0 mm 0.00 in0.0 mm 0.16 in4.1 mm
11:10 AM 69.9°F21.1°C 60.5°F15.8°C 72% 6.3 mph SW10.1 kmh SW 13.2 mph21.2 kmh 29.65 in1004.1 mb 0.00 in0.0 mm 0.00 in0.0 mm 0.16 in4.1 mm
11:15 AM 70.0°F21.1°C 60.4°F15.8°C 72% 7.9 mph WSW12.7 kmh WSW 15.2 mph24.5 kmh 29.65 in1004.1 mb 0.00 in0.0 mm 0.00 in0.0 mm 0.16 in4.1 mm
11:20 AM 69.4°F20.8°C 60.4°F15.8°C 73% 7.1 mph SW11.4 kmh SW 13.9 mph22.4 kmh 29.65 in1004.1 mb 0.00 in0.0 mm 0.00 in0.0 mm 0.16 in4.1 mm
11:55 AM 69.2°F20.7°C 60.3°F15.7°C 73% 5.9 mph SW9.5 kmh SW 9.2 mph14.8 kmh 29.68 in1005.1 mb 0.00 in0.0 mm 0.00 in0.0 mm 0.16 in4.1 mm
12:00 PM 68.9°F20.5°C 60.4°F15.8°C 74% 5.2 mph SW8.4 kmh SW 11.6 mph18.7 kmh 29.68 in1005.1 mb 0.00 in0.0 mm 0.00 in0.0 mm 0.16 in4.1 mm
12:05 PM 70.9°F21.6°C 62.6°F17.0°C 75% 4.0 mph WSW6.4 kmh WSW 8.5 mph13.7 kmh 29.68 in1005.1 mb 0.00 in0.0 mm 0.00 in0.0 mm 0.16 in4.1 mm
12:10 PM 71.0°F21.7°C 61.9°F16.6°C 73% 5.0 mph WSW8.0 kmh WSW 6.9 mph11.1 kmh 29.68 in1005.1 mb 0.00 in0.0 mm 0.00 in0.0 mm 0.16 in4.1 mm
12:15 PM 70.8°F21.6°C 61.6°F16.4°C 73% 6.3 mph SW10.1 kmh SW 9.4 mph15.1 kmh 29.68 in1005.1 mb 0.00 in0.0 mm 0.00 in0.0 mm 0.16 in4.1 mm
12:20 PM 70.6°F21.4°C 60.9°F16.1°C 72% 7.4 mph SW11.9 kmh SW 12.3 mph19.8 kmh 29.68 in1005.1 mb 0.00 in0.0 mm 0.00 in0.0 mm 0.16 in4.1 mm
12:25 PM 70.5°F21.4°C 61.5°F16.4°C 73% 6.0 mph SW9.7 kmh SW 10.1 mph16.3 kmh 29.68 in1005.1 mb 0.00 in0.0 mm 0.00 in0.0 mm 0.16 in4.1 mm
12:30 PM 70.6°F21.4°C 61.3°F16.3°C 73% 6.7 mph SSW10.8 kmh SSW 13.9 mph22.4 kmh 29.68 in1005.1 mb 0.00 in0.0 mm 0.00 in0.0 mm 0.16 in4.1 mm
12:35 PM 69.7°F20.9°C 60.6°F15.9°C 73% 8.5 mph WSW13.7 kmh WSW 15.0 mph24.1 kmh 29.68 in1005.1 mb 0.00 in0.0 mm 0.00 in0.0 mm 0.16 in4.1 mm
12:40 PM 69.1°F20.6°C 60.2°F15.7°C 73% 8.2 mph W13.2 kmh W 13.9 mph22.4 kmh 29.68 in1005.1 mb 0.00 in0.0 mm 0.00 in0.0 mm 0.16 in4.1 mm
12:45 PM 68.6°F20.3°C 60.0°F15.6°C 74% 6.0 mph SW9.7 kmh SW 11.9 mph19.2 kmh 29.68 in1005.1 mb 0.00 in0.0 mm 0.00 in0.0 mm 0.16 in4.1 mm
12:50 PM 68.9°F20.5°C 60.6°F15.9°C 75% 5.9 mph SW9.5 kmh SW 11.4 mph18.3 kmh 29.68 in1005.1 mb 0.00 in0.0 mm 0.00 in0.0 mm 0.16 in4.1 mm
12:55 PM 69.4°F20.8°C 60.9°F16.1°C 74% 5.6 mph WSW9.0 kmh WSW 8.9 mph14.3 kmh 29.68 in1005.1 mb 0.00 in0.0 mm 0.00 in0.0 mm 0.16 in4.1 mm
01:00 PM 70.2°F21.2°C 61.4°F16.3°C 74% 5.6 mph SW9.0 kmh SW 11.2 mph18.0 kmh 29.68 in1005.1 mb 0.00 in0.0 mm 0.00 in0.0 mm 0.16 in4.1 mm
01:05 PM 69.8°F21.0°C 60.5°F15.8°C 72% 7.4 mph WSW11.9 kmh WSW 13.6 mph21.9 kmh 29.70 in1005.8 mb 0.00 in0.0 mm 0.00 in0.0 mm 0.16 in4.1 mm
01:10 PM 70.1°F21.2°C 60.8°F16.0°C 72% 7.1 mph WSW11.4 kmh WSW 13.6 mph21.9 kmh 29.71 in1006.1 mb 0.00 in0.0 mm 0.00 in0.0 mm 0.16 in4.1 mm
01:15 PM 70.2°F21.2°C 60.8°F16.0°C 72% 7.5 mph WSW12.1 kmh WSW 12.3 mph19.8 kmh 29.71 in1006.1 mb 0.00 in0.0 mm 0.00 in0.0 mm 0.16 in4.1 mm
01:20 PM 70.0°F21.1°C 60.6°F15.9°C 72% 8.5 mph SW13.7 kmh SW 15.7 mph25.3 kmh 29.71 in1006.1 mb 0.00 in0.0 mm 0.00 in0.0 mm 0.16 in4.1 mm
01:25 PM 70.3°F21.3°C 61.4°F16.3°C 73% 6.1 mph SW9.8 kmh SW 10.7 mph17.2 kmh 29.71 in1006.1 mb 0.00 in0.0 mm 0.00 in0.0 mm 0.16 in4.1 mm
01:30 PM 70.0°F21.1°C 60.6°F15.9°C 72% 7.9 mph SW12.7 kmh SW 13.0 mph20.9 kmh 29.71 in1006.1 mb 0.00 in0.0 mm 0.00 in0.0 mm 0.16 in4.1 mm
01:35 PM 69.8°F21.0°C 60.5°F15.8°C 72% 6.9 mph SW11.1 kmh SW 13.0 mph20.9 kmh 29.71 in1006.1 mb 0.00 in0.0 mm 0.00 in0.0 mm 0.16 in4.1 mm
01:40 PM 69.9°F21.1°C 61.1°F16.2°C 74% 6.6 mph SSW10.6 kmh SSW 12.3 mph19.8 kmh 29.71 in1006.1 mb 0.00 in0.0 mm 0.00 in0.0 mm 0.16 in4.1 mm
01:45 PM 69.6°F20.9°C 60.5°F15.8°C 73% 8.7 mph WSW14.0 kmh WSW 16.1 mph25.9 kmh 29.71 in1006.1 mb 0.00 in0.0 mm 0.00 in0.0 mm 0.16 in4.1 mm
01:50 PM 69.2°F20.7°C 60.4°F15.8°C 74% 8.0 mph WSW12.9 kmh WSW 14.8 mph23.8 kmh 29.71 in1006.1 mb 0.00 in0.0 mm 0.00 in0.0 mm 0.16 in4.1 mm
01:55 PM 69.3°F20.7°C 60.8°F16.0°C 74% 5.9 mph SW9.5 kmh SW 12.5 mph20.1 kmh 29.71 in1006.1 mb 0.00 in0.0 mm 0.00 in0.0 mm 0.16 in4.1 mm
02:00 PM 69.7°F20.9°C 61.1°F16.2°C 74% 5.8 mph WSW9.3 kmh WSW 11.2 mph18.0 kmh 29.71 in1006.1 mb 0.00 in0.0 mm 0.00 in0.0 mm 0.16 in4.1 mm
02:05 PM 70.0°F21.1°C 61.2°F16.2°C 74% 6.6 mph WSW10.6 kmh WSW 13.2 mph21.2 kmh 29.73 in1006.8 mb 0.00 in0.0 mm 0.00 in0.0 mm 0.16 in4.1 mm
02:10 PM 69.9°F21.1°C 61.5°F16.4°C 75% 4.6 mph SW7.4 kmh SW 8.1 mph13.0 kmh 29.74 in1007.1 mb 0.00 in0.0 mm 0.00 in0.0 mm 0.16 in4.1 mm
02:15 PM 70.1°F21.2°C 61.4°F16.3°C 74% 5.5 mph SW8.9 kmh SW 9.4 mph15.1 kmh 29.74 in1007.1 mb 0.00 in0.0 mm 0.00 in0.0 mm 0.16 in4.1 mm
02:20 PM 69.9°F21.1°C 61.3°F16.3°C 74% 6.2 mph SW10.0 kmh SW 10.3 mph16.6 kmh 29.72 in1006.4 mb 0.00 in0.0 mm 0.00 in0.0 mm 0.16 in4.1 mm
02:25 PM 70.4°F21.3°C 61.5°F16.4°C 74% 6.9 mph WSW11.1 kmh WSW 13.6 mph21.9 kmh 29.71 in1006.1 mb 0.00 in0.0 mm 0.00 in0.0 mm 0.16 in4.1 mm
02:30 PM 69.7°F20.9°C 60.9°F16.1°C 74% 7.5 mph W12.1 kmh W 13.2 mph21.2 kmh 29.71 in1006.1 mb 0.00 in0.0 mm 0.00 in0.0 mm 0.16 in4.1 mm
02:35 PM 69.4°F20.8°C 61.1°F16.2°C 75% 5.5 mph SW8.9 kmh SW 11.0 mph17.7 kmh 29.71 in1006.1 mb 0.00 in0.0 mm 0.00 in0.0 mm 0.16 in4.1 mm
02:40 PM 69.3°F20.7°C 61.2°F16.2°C 75% 5.4 mph WSW8.7 kmh WSW 9.4 mph15.1 kmh 29.71 in1006.1 mb 0.00 in0.0 mm 0.00 in0.0 mm 0.16 in4.1 mm
02:45 PM 69.8°F21.0°C 61.5°F16.4°C 75% 5.3 mph WSW8.5 kmh WSW 11.9 mph19.2 kmh 29.71 in1006.1 mb 0.00 in0.0 mm 0.00 in0.0 mm 0.16 in4.1 mm
02:50 PM 69.7°F20.9°C 61.0°F16.1°C 74% 6.7 mph SW10.8 kmh SW 11.4 mph18.3 kmh 29.73 in1006.8 mb 0.00 in0.0 mm 0.00 in0.0 mm 0.16 in4.1 mm
02:55 PM 69.7°F20.9°C 61.1°F16.2°C 74% 6.0 mph WSW9.7 kmh WSW 9.4 mph15.1 kmh 29.74 in1007.1 mb 0.00 in0.0 mm 0.00 in0.0 mm 0.16 in4.1 mm
03:00 PM 70.1°F21.2°C 61.4°F16.3°C 74% 6.3 mph SW10.1 kmh SW 11.0 mph17.7 kmh 29.74 in1007.1 mb 0.00 in0.0 mm 0.00 in0.0 mm 0.16 in4.1 mm
03:05 PM 69.9°F21.1°C 61.1°F16.2°C 74% 6.6 mph SW10.6 kmh SW 11.6 mph18.7 kmh 29.72 in1006.4 mb 0.00 in0.0 mm 0.00 in0.0 mm 0.16 in4.1 mm
03:10 PM 69.7°F20.9°C 61.2°F16.2°C 75% 6.8 mph SW10.9 kmh SW 15.4 mph24.8 kmh 29.71 in1006.1 mb 0.00 in0.0 mm 0.00 in0.0 mm 0.16 in4.1 mm
03:15 PM 69.2°F20.7°C 60.9°F16.1°C 75% 7.7 mph SW12.4 kmh SW 18.6 mph29.9 kmh 29.71 in1006.1 mb 0.00 in0.0 mm 0.00 in0.0 mm 0.16 in4.1 mm
03:20 PM 69.0°F20.6°C 61.4°F16.3°C 77% 6.7 mph SW10.8 kmh SW 12.3 mph19.8 kmh 29.71 in1006.1 mb 0.00 in0.0 mm 0.00 in0.0 mm 0.16 in4.1 mm
03:25 PM 69.6°F20.9°C 61.4°F16.3°C 75% 6.6 mph SSW10.6 kmh SSW 15.2 mph24.5 kmh 29.71 in1006.1 mb 0.00 in0.0 mm 0.00 in0.0 mm 0.16 in4.1 mm
03:30 PM 69.6°F20.9°C 61.3°F16.3°C 75% 8.0 mph WSW12.9 kmh WSW 17.7 mph28.5 kmh 29.71 in1006.1 mb 0.00 in0.0 mm 0.00 in0.0 mm 0.16 in4.1 mm
03:35 PM 69.1°F20.6°C 61.1°F16.2°C 76% 8.4 mph SW13.5 kmh SW 11.9 mph19.2 kmh 29.73 in1006.8 mb 0.00 in0.0 mm 0.00 in0.0 mm 0.16 in4.1 mm
03:40 PM 69.4°F20.8°C 61.5°F16.4°C 76% 6.1 mph SW9.8 kmh SW 11.6 mph18.7 kmh 29.74 in1007.1 mb 0.00 in0.0 mm 0.00 in0.0 mm 0.16 in4.1 mm
03:45 PM 69.4°F20.8°C 61.1°F16.2°C 75% 7.4 mph WSW11.9 kmh WSW 12.5 mph20.1 kmh 29.74 in1007.1 mb 0.00 in0.0 mm 0.00 in0.0 mm 0.16 in4.1 mm
03:50 PM 69.1°F20.6°C 61.3°F16.3°C 76% 5.5 mph SW8.9 kmh SW 9.8 mph15.8 kmh 29.74 in1007.1 mb 0.00 in0.0 mm 0.00 in0.0 mm 0.16 in4.1 mm
03:55 PM 68.7°F20.4°C 61.5°F16.4°C 78% 5.1 mph WSW8.2 kmh WSW 10.7 mph17.2 kmh 29.74 in1007.1 mb 0.00 in0.0 mm 0.00 in0.0 mm 0.16 in4.1 mm
04:00 PM 67.7°F19.8°C 60.8°F16.0°C 79% 5.5 mph SW8.9 kmh SW 9.4 mph15.1 kmh 29.74 in1007.1 mb 0.00 in0.0 mm 0.00 in0.0 mm 0.16 in4.1 mm
04:05 PM 67.2°F19.6°C 60.9°F16.1°C 80% 6.0 mph WSW9.7 kmh WSW 8.3 mph13.4 kmh 29.72 in1006.4 mb 0.00 in0.0 mm 0.00 in0.0 mm 0.16 in4.1 mm
04:10 PM 67.5°F19.7°C 61.3°F16.3°C 80% 6.4 mph WSW10.3 kmh WSW 9.4 mph15.1 kmh 29.71 in1006.1 mb 0.00 in0.0 mm 0.00 in0.0 mm 0.16 in4.1 mm
04:15 PM 67.7°F19.8°C 61.2°F16.2°C 80% 6.9 mph WSW11.1 kmh WSW 13.4 mph21.6 kmh 29.71 in1006.1 mb 0.00 in0.0 mm 0.00 in0.0 mm 0.16 in4.1 mm
04:20 PM 68.0°F20.0°C 61.2°F16.2°C 79% 6.0 mph WSW9.7 kmh WSW 9.2 mph14.8 kmh 29.69 in1005.4 mb 0.00 in0.0 mm 0.00 in0.0 mm 0.16 in4.1 mm
04:25 PM 67.6°F19.8°C 60.9°F16.1°C 79% 7.1 mph WSW11.4 kmh WSW 12.5 mph20.1 kmh 29.68 in1005.1 mb 0.00 in0.0 mm 0.00 in0.0 mm 0.16 in4.1 mm
04:30 PM 66.2°F19.0°C 60.1°F15.6°C 81% 6.9 mph WSW11.1 kmh WSW 12.8 mph20.6 kmh 29.68 in1005.1 mb 0.00 in0.0 mm 0.00 in0.0 mm 0.16 in4.1 mm
04:35 PM 65.8°F18.8°C 60.6°F15.9°C 83% 6.0 mph WSW9.7 kmh WSW 12.3 mph19.8 kmh 29.70 in1005.8 mb 0.00 in0.0 mm 0.00 in0.0 mm 0.16 in4.1 mm
04:40 PM 65.0°F18.3°C 60.4°F15.8°C 85% 6.1 mph SW9.8 kmh SW 10.3 mph16.6 kmh 29.71 in1006.1 mb 0.00 in0.0 mm 0.00 in0.0 mm 0.16 in4.1 mm
04:45 PM 64.3°F17.9°C 60.4°F15.8°C 87% 6.6 mph SW10.6 kmh SW 10.5 mph16.9 kmh 29.71 in1006.1 mb 0.00 in0.0 mm 0.00 in0.0 mm 0.16 in4.1 mm
04:50 PM 63.6°F17.6°C 60.0°F15.6°C 88% 9.4 mph WSW15.1 kmh WSW 15.4 mph24.8 kmh 29.71 in1006.1 mb 0.00 in0.0 mm 0.00 in0.0 mm 0.16 in4.1 mm
04:55 PM 63.5°F17.5°C 60.1°F15.6°C 89% 6.1 mph SW9.8 kmh SW 8.9 mph14.3 kmh 29.71 in1006.1 mb 0.00 in0.0 mm 0.00 in0.0 mm 0.16 in4.1 mm
05:00 PM 63.5°F17.5°C 60.2°F15.7°C 89% 5.8 mph WSW9.3 kmh WSW 10.1 mph16.3 kmh 29.71 in1006.1 mb 0.00 in0.0 mm 0.00 in0.0 mm 0.16 in4.1 mm
05:05 PM 63.6°F17.6°C 60.6°F15.9°C 90% 6.1 mph WSW9.8 kmh WSW 10.1 mph16.3 kmh 29.71 in1006.1 mb 0.00 in0.0 mm 0.00 in0.0 mm 0.16 in4.1 mm
05:10 PM 63.7°F17.6°C 60.7°F15.9°C 90% 6.1 mph SW9.8 kmh SW 9.4 mph15.1 kmh 29.71 in1006.1 mb 0.00 in0.0 mm 0.00 in0.0 mm 0.16 in4.1 mm
05:15 PM 63.7°F17.6°C 60.7°F15.9°C 90% 6.1 mph WSW9.8 kmh WSW 10.7 mph17.2 kmh 29.71 in1006.1 mb 0.00 in0.0 mm 0.00 in0.0 mm 0.16 in4.1 mm
05:20 PM 63.7°F17.6°C 60.7°F15.9°C 90% 5.2 mph SW8.4 kmh SW 11.9 mph19.2 kmh 29.73 in1006.8 mb 0.00 in0.0 mm 0.00 in0.0 mm 0.16 in4.1 mm
05:25 PM 63.5°F17.5°C 60.6°F15.9°C 90% 6.0 mph SW9.7 kmh SW 10.3 mph16.6 kmh 29.74 in1007.1 mb 0.00 in0.0 mm 0.00 in0.0 mm 0.16 in4.1 mm
05:30 PM 63.2°F17.3°C 60.5°F15.8°C 91% 5.2 mph WSW8.4 kmh WSW 8.3 mph13.4 kmh 29.74 in1007.1 mb 0.00 in0.0 mm 0.00 in0.0 mm 0.16 in4.1 mm
05:35 PM 62.8°F17.1°C 60.2°F15.7°C 91% 6.9 mph WSW11.1 kmh WSW 11.9 mph19.2 kmh 29.74 in1007.1 mb 0.00 in0.0 mm 0.00 in0.0 mm 0.16 in4.1 mm
05:40 PM 62.5°F16.9°C 60.0°F15.6°C 91% 5.1 mph SW8.2 kmh SW 7.8 mph12.6 kmh 29.74 in1007.1 mb 0.00 in0.0 mm 0.00 in0.0 mm 0.16 in4.1 mm
05:45 PM 62.2°F16.8°C 59.9°F15.5°C 92% 4.8 mph WSW7.7 kmh WSW 8.7 mph14.0 kmh 29.74 in1007.1 mb 0.00 in0.0 mm 0.00 in0.0 mm 0.16 in4.1 mm
05:50 PM 61.9°F16.6°C 59.5°F15.3°C 92% 4.6 mph WSW7.4 kmh WSW 8.1 mph13.0 kmh 29.74 in1007.1 mb 0.00 in0.0 mm 0.00 in0.0 mm 0.16 in4.1 mm
05:55 PM 61.6°F16.4°C 59.9°F15.5°C 94% 5.2 mph WSW8.4 kmh WSW 8.7 mph14.0 kmh 29.74 in1007.1 mb 0.00 in0.0 mm 0.00 in0.0 mm 0.16 in4.1 mm
06:00 PM 61.5°F16.4°C 59.8°F15.4°C 94% 5.7 mph WSW9.2 kmh WSW 10.7 mph17.2 kmh 29.74 in1007.1 mb 0.00 in0.0 mm 0.00 in0.0 mm 0.16 in4.1 mm
06:05 PM 61.3°F16.3°C 59.8°F15.4°C 95% 6.0 mph WSW9.7 kmh WSW 10.3 mph16.6 kmh 29.74 in1007.1 mb 0.00 in0.0 mm 0.00 in0.0 mm 0.16 in4.1 mm
06:10 PM 61.3°F16.3°C 59.9°F15.5°C 95% 4.8 mph WSW7.7 kmh WSW 8.9 mph14.3 kmh 29.74 in1007.1 mb 0.00 in0.0 mm 0.00 in0.0 mm 0.16 in4.1 mm
06:15 PM 61.3°F16.3°C 60.1°F15.6°C 96% 5.1 mph WSW8.2 kmh WSW 8.7 mph14.0 kmh 29.74 in1007.1 mb 0.00 in0.0 mm 0.00 in0.0 mm 0.16 in4.1 mm
06:20 PM 61.2°F16.2°C 60.1°F15.6°C 96% 4.3 mph WSW6.9 kmh WSW 9.8 mph15.8 kmh 29.74 in1007.1 mb 0.00 in0.0 mm 0.00 in0.0 mm 0.16 in4.1 mm
06:24 PM 61.3°F16.3°C 60.5°F15.8°C 97% 3.6 mph SW5.8 kmh SW -- 29.74 in1007.1 mb 0.00 in0.0 mm 0.00 in0.0 mm 0.16 in4.1 mm
06:25 PM 61.3°F16.3°C 60.5°F15.8°C 97% 3.7 mph SW6.0 kmh SW 6.5 mph10.5 kmh 29.74 in1007.1 mb 0.00 in0.0 mm 0.00 in0.0 mm 0.16 in4.1 mm
06:30 PM 61.3°F16.3°C 60.5°F15.8°C 97% 4.2 mph WSW6.8 kmh WSW 7.6 mph12.2 kmh 29.74 in1007.1 mb 0.00 in0.0 mm 0.00 in0.0 mm 0.16 in4.1 mm
06:35 PM 61.4°F16.3°C 60.5°F15.8°C 97% 5.4 mph WSW8.7 kmh WSW 9.4 mph15.1 kmh 29.74 in1007.1 mb 0.00 in0.0 mm 0.00 in0.0 mm 0.16 in4.1 mm
06:40 PM 61.3°F16.3°C 60.5°F15.8°C 97% 5.3 mph WSW8.5 kmh WSW 8.9 mph14.3 kmh 29.74 in1007.1 mb 0.00 in0.0 mm 0.00 in0.0 mm 0.16 in4.1 mm
06:45 PM 61.3°F16.3°C 60.5°F15.8°C 97% 4.9 mph WSW7.9 kmh WSW 9.8 mph15.8 kmh 29.74 in1007.1 mb 0.00 in0.0 mm 0.00 in0.0 mm 0.16 in4.1 mm
06:50 PM 61.2°F16.2°C 60.3°F15.7°C 97% 5.9 mph WSW9.5 kmh WSW 9.2 mph14.8 kmh 29.76 in1007.8 mb 0.00 in0.0 mm 0.00 in0.0 mm 0.16 in4.1 mm
06:55 PM 61.0°F16.1°C 60.2°F15.7°C 97% 3.3 mph W5.3 kmh W 6.7 mph10.8 kmh 29.77 in1008.1 mb 0.00 in0.0 mm 0.00 in0.0 mm 0.16 in4.1 mm
07:00 PM 61.0°F16.1°C 60.1°F15.6°C 97% 4.0 mph W6.4 kmh W 7.8 mph12.6 kmh 29.77 in1008.1 mb 0.00 in0.0 mm 0.00 in0.0 mm 0.16 in4.1 mm
07:05 PM 60.8°F16.0°C 60.0°F15.6°C 97% 4.2 mph W6.8 kmh W 7.6 mph12.2 kmh 29.77 in1008.1 mb 0.00 in0.0 mm 0.00 in0.0 mm 0.16 in4.1 mm
07:10 PM 60.8°F16.0°C 59.9°F15.5°C 97% 3.9 mph W6.3 kmh W 6.9 mph11.1 kmh 29.77 in1008.1 mb 0.00 in0.0 mm 0.00 in0.0 mm 0.16 in4.1 mm
07:15 PM 60.6°F15.9°C 59.8°F15.4°C 97% 4.5 mph W7.2 kmh W 10.1 mph16.3 kmh 29.77 in1008.1 mb 0.00 in0.0 mm 0.00 in0.0 mm 0.16 in4.1 mm
07:20 PM 60.3°F15.7°C 59.4°F15.2°C 97% 4.8 mph W7.7 kmh W 10.1 mph16.3 kmh 29.79 in1008.8 mb 0.00 in0.0 mm 0.00 in0.0 mm 0.16 in4.1 mm
07:25 PM 60.0°F15.6°C 59.2°F15.1°C 97% 4.2 mph WNW6.8 kmh WNW 6.3 mph10.1 kmh 29.80 in1009.1 mb 0.00 in0.0 mm 0.00 in0.0 mm 0.16 in4.1 mm
07:30 PM 59.8°F15.4°C 59.0°F15.0°C 97% 4.7 mph W7.6 kmh W 9.8 mph15.8 kmh 29.80 in1009.1 mb 0.00 in0.0 mm 0.00 in0.0 mm 0.16 in4.1 mm
07:35 PM 59.7°F15.4°C 58.9°F14.9°C 97% 4.7 mph WSW7.6 kmh WSW 7.8 mph12.6 kmh 29.78 in1008.5 mb 0.00 in0.0 mm 0.00 in0.0 mm 0.16 in4.1 mm
07:40 PM 59.6°F15.3°C 58.8°F14.9°C 97% 4.2 mph W6.8 kmh W 8.1 mph13.0 kmh 29.77 in1008.1 mb 0.00 in0.0 mm 0.00 in0.0 mm 0.16 in4.1 mm
07:45 PM 59.5°F15.3°C 58.7°F14.8°C 97% 3.5 mph W5.6 kmh W 6.9 mph11.1 kmh 29.77 in1008.1 mb 0.00 in0.0 mm 0.00 in0.0 mm 0.16 in4.1 mm
07:50 PM 59.4°F15.2°C 58.6°F14.8°C 97% 3.8 mph W6.1 kmh W 5.4 mph8.7 kmh 29.79 in1008.8 mb 0.00 in0.0 mm 0.00 in0.0 mm 0.16 in4.1 mm
07:55 PM 59.5°F15.3°C 58.7°F14.8°C 97% 3.6 mph W5.8 kmh W 6.5 mph10.5 kmh 29.80 in1009.1 mb 0.00 in0.0 mm 0.00 in0.0 mm 0.16 in4.1 mm
08:00 PM 59.5°F15.3°C 58.9°F14.9°C 98% 3.2 mph W5.1 kmh W 5.1 mph8.2 kmh 29.80 in1009.1 mb 0.00 in0.0 mm 0.00 in0.0 mm 0.16 in4.1 mm
08:05 PM 59.4°F15.2°C 58.5°F14.7°C 97% 2.8 mph W4.5 kmh W 5.1 mph8.2 kmh 29.80 in1009.1 mb 0.00 in0.0 mm 0.00 in0.0 mm 0.16 in4.1 mm
08:10 PM 59.4°F15.2°C 58.7°F14.8°C 98% 3.4 mph WNW5.5 kmh WNW 6.3 mph10.1 kmh 29.80 in1009.1 mb 0.00 in0.0 mm 0.00 in0.0 mm 0.16 in4.1 mm
08:15 PM 59.4°F15.2°C 58.8°F14.9°C 98% 3.0 mph W4.8 kmh W 5.1 mph8.2 kmh 29.80 in1009.1 mb 0.00 in0.0 mm 0.00 in0.0 mm 0.16 in4.1 mm
08:20 PM 59.4°F15.2°C 58.8°F14.9°C 98% 3.3 mph W5.3 kmh W 6.3 mph10.1 kmh 29.82 in1009.8 mb 0.00 in0.0 mm 0.00 in0.0 mm 0.16 in4.1 mm
08:25 PM 59.4°F15.2°C 58.8°F14.9°C 98% 3.5 mph WNW5.6 kmh WNW 6.5 mph10.5 kmh 29.83 in1010.2 mb 0.00 in0.0 mm 0.00 in0.0 mm 0.16 in4.1 mm
08:30 PM 59.4°F15.2°C 58.8°F14.9°C 98% 3.8 mph W6.1 kmh W 7.6 mph12.2 kmh 29.83 in1010.2 mb 0.00 in0.0 mm 0.00 in0.0 mm 0.16 in4.1 mm
08:35 PM 59.4°F15.2°C 58.8°F14.9°C 98% 3.5 mph WNW5.6 kmh WNW 6.0 mph9.7 kmh 29.83 in1010.2 mb 0.00 in0.0 mm 0.00 in0.0 mm 0.16 in4.1 mm
08:40 PM 59.5°F15.3°C 59.0°F15.0°C 98% 3.5 mph W5.6 kmh W 7.4 mph11.9 kmh 29.83 in1010.2 mb 0.00 in0.0 mm 0.00 in0.0 mm 0.16 in4.1 mm
08:45 PM 59.5°F15.3°C 58.9°F14.9°C 98% 5.0 mph WSW8.0 kmh WSW 10.7 mph17.2 kmh 29.83 in1010.2 mb 0.00 in0.0 mm 0.00 in0.0 mm 0.16 in4.1 mm
08:50 PM 59.3°F15.2°C 58.7°F14.8°C 98% 4.8 mph WSW7.7 kmh WSW 8.3 mph13.4 kmh 29.83 in1010.2 mb 0.00 in0.0 mm 0.00 in0.0 mm 0.16 in4.1 mm
08:55 PM 59.1°F15.1°C 58.5°F14.7°C 98% 3.8 mph W6.1 kmh W 5.8 mph9.3 kmh 29.83 in1010.2 mb 0.00 in0.0 mm 0.00 in0.0 mm 0.16 in4.1 mm
09:00 PM 58.9°F14.9°C 58.3°F14.6°C 98% 3.6 mph W5.8 kmh W 7.4 mph11.9 kmh 29.83 in1010.2 mb 0.00 in0.0 mm 0.00 in0.0 mm 0.16 in4.1 mm
09:05 PM 58.7°F14.8°C 58.1°F14.5°C 98% 3.5 mph W5.6 kmh W 5.4 mph8.7 kmh 29.83 in1010.2 mb 0.00 in0.0 mm 0.00 in0.0 mm 0.16 in4.1 mm
09:10 PM 58.6°F14.8°C 58.1°F14.5°C 98% 3.3 mph W5.3 kmh W 6.3 mph10.1 kmh 29.83 in1010.2 mb 0.00 in0.0 mm 0.00 in0.0 mm 0.16 in4.1 mm
09:15 PM 58.5°F14.7°C 57.9°F14.4°C 98% 3.9 mph W6.3 kmh W 8.7 mph14.0 kmh 29.83 in1010.2 mb 0.00 in0.0 mm 0.00 in0.0 mm 0.16 in4.1 mm
09:20 PM 58.3°F14.6°C 57.8°F14.3°C 98% 3.8 mph WNW6.1 kmh WNW 6.9 mph11.1 kmh 29.85 in1010.8 mb 0.00 in0.0 mm 0.00 in0.0 mm 0.16 in4.1 mm
09:25 PM 58.0°F14.4°C 57.4°F14.1°C 98% 3.1 mph WSW5.0 kmh WSW 5.1 mph8.2 kmh 29.86 in1011.2 mb 0.00 in0.0 mm 0.00 in0.0 mm 0.16 in4.1 mm
09:30 PM 57.7°F14.3°C 57.2°F14.0°C 98% 3.3 mph W5.3 kmh W 5.4 mph8.7 kmh 29.86 in1011.2 mb 0.00 in0.0 mm 0.00 in0.0 mm 0.16 in4.1 mm
09:35 PM 57.6°F14.2°C 57.0°F13.9°C 98% 2.9 mph WSW4.7 kmh WSW 6.5 mph10.5 kmh 29.86 in1011.2 mb 0.00 in0.0 mm 0.00 in0.0 mm 0.16 in4.1 mm
09:40 PM 57.4°F14.1°C 56.8°F13.8°C 98% 2.9 mph WSW4.7 kmh WSW 4.3 mph6.9 kmh 29.86 in1011.2 mb 0.00 in0.0 mm 0.00 in0.0 mm 0.16 in4.1 mm
09:45 PM 57.3°F14.1°C 56.8°F13.8°C 98% 3.4 mph WSW5.5 kmh WSW 6.0 mph9.7 kmh 29.86 in1011.2 mb 0.00 in0.0 mm 0.00 in0.0 mm 0.16 in4.1 mm
09:50 PM 57.2°F14.0°C 56.6°F13.7°C 98% 3.2 mph W5.1 kmh W 6.9 mph11.1 kmh 29.86 in1011.2 mb 0.00 in0.0 mm 0.00 in0.0 mm 0.16 in4.1 mm
09:55 PM 57.1°F13.9°C 56.5°F13.6°C 98% 3.0 mph WSW4.8 kmh WSW 5.1 mph8.2 kmh 29.86 in1011.2 mb 0.00 in0.0 mm 0.00 in0.0 mm 0.16 in4.1 mm
10:00 PM 56.9°F13.8°C 56.3°F13.5°C 98% 2.4 mph WSW3.9 kmh WSW 4.3 mph6.9 kmh 29.86 in1011.2 mb 0.00 in0.0 mm 0.00 in0.0 mm 0.16 in4.1 mm
10:05 PM 56.8°F13.8°C 56.2°F13.4°C 98% 3.2 mph WSW5.1 kmh WSW 5.6 mph9.0 kmh 29.88 in1011.9 mb 0.00 in0.0 mm 0.00 in0.0 mm 0.16 in4.1 mm
10:10 PM 56.7°F13.7°C 56.1°F13.4°C 98% 2.9 mph WSW4.7 kmh WSW 4.3 mph6.9 kmh 29.89 in1012.2 mb 0.00 in0.0 mm 0.00 in0.0 mm 0.16 in4.1 mm
10:15 PM 56.5°F13.6°C 55.9°F13.3°C 98% 2.7 mph WSW4.3 kmh WSW 5.1 mph8.2 kmh 29.89 in1012.2 mb 0.00 in0.0 mm 0.00 in0.0 mm 0.16 in4.1 mm
10:20 PM 56.4°F13.6°C 55.8°F13.2°C 98% 2.8 mph WSW4.5 kmh WSW 4.3 mph6.9 kmh 29.89 in1012.2 mb 0.00 in0.0 mm 0.00 in0.0 mm 0.16 in4.1 mm
10:25 PM 56.1°F13.4°C 55.6°F13.1°C 98% 1.6 mph W2.6 kmh W 3.4 mph5.5 kmh 29.89 in1012.2 mb 0.00 in0.0 mm 0.00 in0.0 mm 0.16 in4.1 mm
10:30 PM 55.9°F13.3°C 55.4°F13.0°C 98% 2.4 mph WSW3.9 kmh WSW 4.5 mph7.2 kmh 29.89 in1012.2 mb 0.00 in0.0 mm 0.00 in0.0 mm 0.16 in4.1 mm
10:35 PM 55.9°F13.3°C 55.4°F13.0°C 98% 2.9 mph WSW4.7 kmh WSW 4.9 mph7.9 kmh 29.89 in1012.2 mb 0.00 in0.0 mm 0.00 in0.0 mm 0.16 in4.1 mm
10:40 PM 55.9°F13.3°C 55.4°F13.0°C 98% 2.5 mph WSW4.0 kmh WSW 4.3 mph6.9 kmh 29.89 in1012.2 mb 0.00 in0.0 mm 0.00 in0.0 mm 0.16 in4.1 mm
10:45 PM 55.9°F13.3°C 55.4°F13.0°C 98% 3.1 mph WSW5.0 kmh WSW 4.9 mph7.9 kmh 29.89 in1012.2 mb 0.00 in0.0 mm 0.00 in0.0 mm 0.16 in4.1 mm
10:50 PM 55.9°F13.3°C 55.3°F12.9°C 98% 2.7 mph W4.3 kmh W 4.9 mph7.9 kmh 29.89 in1012.2 mb 0.00 in0.0 mm 0.00 in0.0 mm 0.16 in4.1 mm
10:55 PM 55.8°F13.2°C 55.3°F12.9°C 98% 2.7 mph WSW4.3 kmh WSW 3.8 mph6.1 kmh 29.89 in1012.2 mb 0.00 in0.0 mm 0.00 in0.0 mm 0.16 in4.1 mm
11:00 PM 55.8°F13.2°C 55.3°F12.9°C 98% 2.4 mph WSW3.9 kmh WSW 4.3 mph6.9 kmh 29.89 in1012.2 mb 0.00 in0.0 mm 0.00 in0.0 mm 0.16 in4.1 mm
11:05 PM 55.8°F13.2°C 55.2°F12.9°C 98% 2.2 mph WSW3.5 kmh WSW 3.1 mph5.0 kmh 29.89 in1012.2 mb 0.00 in0.0 mm 0.00 in0.0 mm 0.16 in4.1 mm
11:10 PM 55.8°F13.2°C 55.2°F12.9°C 98% 1.5 mph W2.4 kmh W 2.7 mph4.3 kmh 29.89 in1012.2 mb 0.00 in0.0 mm 0.00 in0.0 mm 0.16 in4.1 mm
11:15 PM 55.6°F13.1°C 55.1°F12.8°C 98% 1.0 mph WSW1.6 kmh WSW 2.7 mph4.3 kmh 29.89 in1012.2 mb 0.00 in0.0 mm 0.00 in0.0 mm 0.16 in4.1 mm
11:20 PM 55.6°F13.1°C 55.0°F12.8°C 98% 2.0 mph SW3.2 kmh SW 3.4 mph5.5 kmh 29.89 in1012.2 mb 0.00 in0.0 mm 0.00 in0.0 mm 0.16 in4.1 mm
11:25 PM 55.6°F13.1°C 55.1°F12.8°C 98% 2.0 mph WSW3.2 kmh WSW 3.6 mph5.8 kmh 29.89 in1012.2 mb 0.00 in0.0 mm 0.00 in0.0 mm 0.16 in4.1 mm
11:30 PM 55.6°F13.1°C 55.0°F12.8°C 98% 1.6 mph WSW2.6 kmh WSW 3.4 mph5.5 kmh 29.89 in1012.2 mb 0.00 in0.0 mm 0.00 in0.0 mm 0.16 in4.1 mm
11:35 PM 55.6°F13.1°C 55.0°F12.8°C 98% 1.2 mph SW1.9 kmh SW 3.6 mph5.8 kmh 29.89 in1012.2 mb 0.00 in0.0 mm 0.00 in0.0 mm 0.16 in4.1 mm
11:40 PM 55.5°F13.1°C 54.9°F12.7°C 98% 1.0 mph SW1.6 kmh SW 2.9 mph4.7 kmh 29.89 in1012.2 mb 0.00 in0.0 mm 0.00 in0.0 mm 0.16 in4.1 mm
11:45 PM 55.5°F13.1°C 54.9°F12.7°C 98% 1.5 mph SSW2.4 kmh SSW 3.4 mph5.5 kmh 29.89 in1012.2 mb 0.00 in0.0 mm 0.00 in0.0 mm 0.16 in4.1 mm
11:50 PM 55.5°F13.1°C 54.9°F12.7°C 98% 1.0 mph S1.6 kmh S 3.8 mph6.1 kmh 29.89 in1012.2 mb 0.00 in0.0 mm 0.00 in0.0 mm 0.16 in4.1 mm
11:55 PM 55.4°F13.0°C 54.9°F12.7°C 98% 0.3 mph SSE0.5 kmh SSE 1.6 mph2.6 kmh 29.89 in1012.2 mb 0.00 in0.0 mm 0.00 in0.0 mm 0.16 in4.1 mm